Lesley Pg — MXUG5 — position and weather

sailwx.info

Track history (hours):
 
Tides and Currents Weather Stations Pressure Air Temp Water Temp Dewpoint Dewpoint Depression Visibility Wind Speed Wind Dir Waves Ship Positions

Lesley Pg

Last reported at 2017-Feb-20 00:30 UTC. Time now 2017-Feb-26 07:47 UTC.
Position N 10°52' W 061°51'.

Length 102 m; draft 6.2 m.

Type: Tanker. MMSI: 234910000.

Date/timePositionNaut miles runAvg speedWind from/ knotsBaromVisibWave heightAir tempDewpointWater temp
2017-Feb-20 00:30N 10°52' W 061°51'1212.9
2017-Feb-19 23:33N 10°40' W 061°49'1211.5
2017-Feb-19 22:33N 10°31' W 061°41'1211.8
2017-Feb-19 21:33N 10°22' W 061°33'4 4.3
2017-Feb-19 20:33N 10°19' W 061°30'0 0.0
2017-Feb-19 19:33N 10°19' W 061°30'0 0.0
2017-Feb-19 18:33N 10°19' W 061°30'0 0.1
2017-Feb-19 17:32N 10°19' W 061°30'0 0.0
2017-Feb-19 16:33N 10°19' W 061°30'0 0.0
2017-Feb-19 15:25N 10°19' W 061°30'1 0.4
2017-Feb-19 12:26N 10°19' W 061°29'0 0.0
2017-Feb-19 10:11N 10°19' W 061°29'0 0.0
2017-Feb-19 09:33N 10°19' W 061°29'0 0.0
2017-Feb-19 08:33N 10°19' W 061°29'0 0.0
2017-Feb-19 07:33N 10°19' W 061°29'0 0.0
2017-Feb-19 06:33N 10°19' W 061°29'0 0.0
2017-Feb-19 05:33N 10°19' W 061°29'0 0.0
2017-Feb-19 04:33N 10°19' W 061°29'0 0.0
2017-Feb-19 03:33N 10°19' W 061°29'0 0.0
2017-Feb-19 02:33N 10°19' W 061°29'0 0.0
2017-Feb-19 01:33N 10°19' W 061°29'0 0.0
2017-Feb-19 00:33N 10°19' W 061°29'0 0.0
2017-Feb-18 23:34N 10°19' W 061°29'1 1.4
2017-Feb-18 22:32N 10°19' W 061°30'0 0.0
2017-Feb-18 21:34N 10°19' W 061°30'0 0.1
2017-Feb-18 20:33N 10°19' W 061°30'0 0.1
2017-Feb-18 19:34N 10°19' W 061°30'0 0.0
2017-Feb-18 18:33N 10°19' W 061°30'0 0.1
2017-Feb-18 17:34N 10°19' W 061°30'0 0.1
2017-Feb-18 16:33N 10°19' W 061°30'0 0.1
2017-Feb-18 15:34N 10°19' W 061°30'3 3.3
2017-Feb-18 14:34N 10°22' W 061°33'1211.8
2017-Feb-18 13:34N 10°30' W 061°41'1211.8
2017-Feb-18 12:34N 10°39' W 061°49'1010.3
2017-Feb-18 11:33N 10°50' W 061°50'  
2017-Feb-14 11:33N 16°26' W 062°27'1212.2
2017-Feb-14 10:33N 16°37' W 062°33'7311.8
2017-Feb-14 04:21N 17°44' W 063°04'911.8
2017-Feb-14 03:33N 17°53' W 063°05'8 7.5
2017-Feb-14 02:30N 18°01' W 063°05'0 0.0
2017-Feb-14 01:26N 18°01' W 063°05'0 0.0
2017-Feb-14 00:32N 18°01' W 063°05'0 0.0
2017-Feb-13 23:32N 18°01' W 063°05'0 0.0
2017-Feb-13 22:32N 18°01' W 063°05'0 0.0
2017-Feb-13 21:30N 18°01' W 063°05'0 0.0
2017-Feb-13 20:14N 18°01' W 063°05'0 0.0
2017-Feb-13 19:32N 18°01' W 063°05'0 0.0
2017-Feb-13 18:20N 18°01' W 063°05'0 0.0
2017-Feb-13 17:21N 18°01' W 063°05'0 0.0
2017-Feb-13 16:06N 18°01' W 063°05'0 0.0
2017-Feb-13 15:31N 18°01' W 063°05'0 0.0
2017-Feb-13 14:20N 18°01' W 063°05'0 0.0
2017-Feb-13 13:31N 18°01' W 063°05'0 0.0
2017-Feb-13 12:31N 18°01' W 063°05'0 0.0
2017-Feb-13 11:20N 18°01' W 063°05'0 0.0
2017-Feb-13 09:21N 18°01' W 063°05'0 0.0
2017-Feb-13 08:26N 18°01' W 063°05'0 0.0
2017-Feb-13 07:26N 18°01' W 063°05'0 0.0
2017-Feb-13 06:27N 18°01' W 063°05'0 0.0
2017-Feb-13 05:19N 18°01' W 063°05'0 0.0
2017-Feb-13 04:31N 18°01' W 063°05'0 0.0
2017-Feb-13 03:29N 18°01' W 063°05'0 0.0
2017-Feb-13 02:31N 18°01' W 063°05'0 0.0
2017-Feb-13 01:33N 18°01' W 063°05'0 0.0
2017-Feb-13 00:18N 18°01' W 063°05'0 0.0
2017-Feb-12 23:20N 18°01' W 063°05'0 0.0
2017-Feb-12 22:30N 18°01' W 063°05'0 0.0
2017-Feb-12 21:33N 18°01' W 063°05'0 0.0
2017-Feb-12 20:33N 18°01' W 063°05'0 0.0
2017-Feb-12 19:25N 18°01' W 063°05'0 0.0
2017-Feb-12 18:29N 18°01' W 063°05'0 0.0
2017-Feb-12 17:28N 18°01' W 063°05'2 1.7
2017-Feb-12 16:32N 17°60' W 063°05'4611.6
2017-Feb-12 12:33N 17°31' W 062°27'1212.0
2017-Feb-12 11:33N 17°25' W 062°17'1212.1
2017-Feb-12 10:33N 17°18' W 062°06'1211.7
2017-Feb-12 09:33N 17°11' W 061°56'2 2.1
2017-Feb-12 08:33N 17°10' W 061°54'0 0.2
2017-Feb-12 07:33N 17°10' W 061°54'0 0.1
2017-Feb-12 06:33N 17°10' W 061°54'0 0.0
2017-Feb-12 05:31N 17°10' W 061°54'0 0.1
2017-Feb-12 04:33N 17°10' W 061°54'2 1.9
2017-Feb-12 03:31N 17°09' W 061°52'0 0.0
2017-Feb-12 02:31N 17°09' W 061°52'0 0.0
2017-Feb-12 01:31N 17°09' W 061°52'0 0.0
2017-Feb-12 00:31N 17°09' W 061°52'0 0.0
2017-Feb-11 23:31N 17°09' W 061°52'0 0.0
2017-Feb-11 22:31N 17°09' W 061°52'0 0.0
2017-Feb-11 21:34N 17°09' W 061°52'0 0.0
2017-Feb-11 20:33N 17°09' W 061°52'0 0.0
2017-Feb-11 19:33N 17°09' W 061°52'0 0.0
2017-Feb-11 18:34N 17°09' W 061°52'0 0.0
2017-Feb-11 17:33N 17°09' W 061°52'0 0.0
2017-Feb-11 16:33N 17°09' W 061°52'0 0.0
2017-Feb-11 15:34N 17°09' W 061°52'0 0.0
2017-Feb-11 14:33N 17°09' W 061°52'0 0.0
2017-Feb-11 13:33N 17°09' W 061°52'0 0.0
2017-Feb-11 12:33N 17°09' W 061°52'0 0.0
2017-Feb-11 11:33N 17°09' W 061°52'0 0.0
2017-Feb-11 10:33N 17°09' W 061°52'0 0.0
2017-Feb-11 09:33N 17°09' W 061°52'0 0.0
2017-Feb-11 08:33N 17°09' W 061°52'0 0.0
2017-Feb-11 07:33N 17°09' W 061°52'0 0.0
2017-Feb-11 06:34N 17°09' W 061°52'0 0.0
2017-Feb-11 05:34N 17°09' W 061°52'0 0.0
2017-Feb-11 04:33N 17°09' W 061°52'0 0.0
2017-Feb-11 03:33N 17°09' W 061°52'0 0.0
2017-Feb-11 02:34N 17°09' W 061°52'0 0.0
2017-Feb-11 01:34N 17°09' W 061°52'0 0.0
2017-Feb-11 00:33N 17°09' W 061°52'0 0.0
2017-Feb-10 23:33N 17°09' W 061°52'0 0.0
2017-Feb-10 22:33N 17°09' W 061°52'0 0.0
2017-Feb-10 21:33N 17°09' W 061°52'0 0.0
2017-Feb-10 20:33N 17°09' W 061°52'2 1.8
2017-Feb-10 19:33N 17°09' W 061°54'0 0.1
2017-Feb-10 18:33N 17°09' W 061°54'0 0.0
2017-Feb-10 17:33N 17°09' W 061°54'0 0.1
2017-Feb-10 16:33N 17°09' W 061°54'0 0.0
2017-Feb-10 15:33N 17°09' W 061°54'0 0.0
2017-Feb-10 14:33N 17°09' W 061°54'0 0.0
2017-Feb-10 13:33N 17°09' W 061°54'0 0.1
2017-Feb-10 12:33N 17°09' W 061°54'0 0.0
2017-Feb-10 11:33N 17°09' W 061°54'0 0.0
2017-Feb-10 10:33N 17°09' W 061°54'0 0.0
2017-Feb-10 09:33N 17°09' W 061°54'0 0.0
2017-Feb-10 08:34N 17°09' W 061°54'0 0.0
2017-Feb-10 07:34N 17°09' W 061°54'0 0.0
2017-Feb-10 06:34N 17°09' W 061°54'0 0.0
2017-Feb-10 05:33N 17°09' W 061°54'0 0.0
2017-Feb-10 04:34N 17°09' W 061°54'0 0.0
2017-Feb-10 03:33N 17°09' W 061°54'0 0.0
2017-Feb-10 02:33N 17°09' W 061°54'0 0.0
2017-Feb-10 01:33N 17°09' W 061°54'0 0.0
2017-Feb-10 00:33N 17°09' W 061°54'  
Track history (hours):
 
Tides and Currents Weather Stations Pressure Air Temp Water Temp Dewpoint Dewpoint Depression Visibility Wind Speed Wind Dir Waves Ship Positions

Lesley Pg

Last reported at 2017-Feb-20 00:30 UTC. Time now 2017-Feb-26 07:47 UTC.
Position N 10°52' W 061°51'.

Length 102 m; draft 6.2 m.

Type: Tanker. MMSI: 234910000.

Date/timePositionNaut miles runAvg speedWind from/ knotsBaromVisibWave heightAir tempDewpointWater temp
2017-Feb-20 00:30N 10°52' W 061°51'1212.9
2017-Feb-19 23:33N 10°40' W 061°49'1211.5
2017-Feb-19 22:33N 10°31' W 061°41'1211.8
2017-Feb-19 21:33N 10°22' W 061°33'4 4.3
2017-Feb-19 20:33N 10°19' W 061°30'0 0.0
2017-Feb-19 19:33N 10°19' W 061°30'0 0.0
2017-Feb-19 18:33N 10°19' W 061°30'0 0.1
2017-Feb-19 17:32N 10°19' W 061°30'0 0.0
2017-Feb-19 16:33N 10°19' W 061°30'0 0.0
2017-Feb-19 15:25N 10°19' W 061°30'1 0.4
2017-Feb-19 12:26N 10°19' W 061°29'0 0.0
2017-Feb-19 10:11N 10°19' W 061°29'0 0.0
2017-Feb-19 09:33N 10°19' W 061°29'0 0.0
2017-Feb-19 08:33N 10°19' W 061°29'0 0.0
2017-Feb-19 07:33N 10°19' W 061°29'0 0.0
2017-Feb-19 06:33N 10°19' W 061°29'0 0.0
2017-Feb-19 05:33N 10°19' W 061°29'0 0.0
2017-Feb-19 04:33N 10°19' W 061°29'0 0.0
2017-Feb-19 03:33N 10°19' W 061°29'0 0.0
2017-Feb-19 02:33N 10°19' W 061°29'0 0.0
2017-Feb-19 01:33N 10°19' W 061°29'0 0.0
2017-Feb-19 00:33N 10°19' W 061°29'0 0.0
2017-Feb-18 23:34N 10°19' W 061°29'1 1.4
2017-Feb-18 22:32N 10°19' W 061°30'0 0.0
2017-Feb-18 21:34N 10°19' W 061°30'0 0.1
2017-Feb-18 20:33N 10°19' W 061°30'0 0.1
2017-Feb-18 19:34N 10°19' W 061°30'0 0.0
2017-Feb-18 18:33N 10°19' W 061°30'0 0.1
2017-Feb-18 17:34N 10°19' W 061°30'0 0.1
2017-Feb-18 16:33N 10°19' W 061°30'0 0.1
2017-Feb-18 15:34N 10°19' W 061°30'3 3.3
2017-Feb-18 14:34N 10°22' W 061°33'1211.8
2017-Feb-18 13:34N 10°30' W 061°41'1211.8
2017-Feb-18 12:34N 10°39' W 061°49'1010.3
2017-Feb-18 11:33N 10°50' W 061°50'  
2017-Feb-14 11:33N 16°26' W 062°27'1212.2
2017-Feb-14 10:33N 16°37' W 062°33'7311.8
2017-Feb-14 04:21N 17°44' W 063°04'911.8
2017-Feb-14 03:33N 17°53' W 063°05'8 7.5
2017-Feb-14 02:30N 18°01' W 063°05'0 0.0
2017-Feb-14 01:26N 18°01' W 063°05'0 0.0
2017-Feb-14 00:32N 18°01' W 063°05'0 0.0
2017-Feb-13 23:32N 18°01' W 063°05'0 0.0
2017-Feb-13 22:32N 18°01' W 063°05'0 0.0
2017-Feb-13 21:30N 18°01' W 063°05'0 0.0
2017-Feb-13 20:14N 18°01' W 063°05'0 0.0
2017-Feb-13 19:32N 18°01' W 063°05'0 0.0
2017-Feb-13 18:20N 18°01' W 063°05'0 0.0
2017-Feb-13 17:21N 18°01' W 063°05'0 0.0
2017-Feb-13 16:06N 18°01' W 063°05'0 0.0
2017-Feb-13 15:31N 18°01' W 063°05'0 0.0
2017-Feb-13 14:20N 18°01' W 063°05'0 0.0
2017-Feb-13 13:31N 18°01' W 063°05'0 0.0
2017-Feb-13 12:31N 18°01' W 063°05'0 0.0
2017-Feb-13 11:20N 18°01' W 063°05'0 0.0
2017-Feb-13 09:21N 18°01' W 063°05'0 0.0
2017-Feb-13 08:26N 18°01' W 063°05'0 0.0
2017-Feb-13 07:26N 18°01' W 063°05'0 0.0
2017-Feb-13 06:27N 18°01' W 063°05'0 0.0
2017-Feb-13 05:19N 18°01' W 063°05'0 0.0
2017-Feb-13 04:31N 18°01' W 063°05'0 0.0
2017-Feb-13 03:29N 18°01' W 063°05'0 0.0
2017-Feb-13 02:31N 18°01' W 063°05'0 0.0
2017-Feb-13 01:33N 18°01' W 063°05'0 0.0
2017-Feb-13 00:18N 18°01' W 063°05'0 0.0
2017-Feb-12 23:20N 18°01' W 063°05'0 0.0
2017-Feb-12 22:30N 18°01' W 063°05'0 0.0
2017-Feb-12 21:33N 18°01' W 063°05'0 0.0
2017-Feb-12 20:33N 18°01' W 063°05'0 0.0
2017-Feb-12 19:25N 18°01' W 063°05'0 0.0
2017-Feb-12 18:29N 18°01' W 063°05'0 0.0
2017-Feb-12 17:28N 18°01' W 063°05'2 1.7
2017-Feb-12 16:32N 17°60' W 063°05'4611.6
2017-Feb-12 12:33N 17°31' W 062°27'1212.0
2017-Feb-12 11:33N 17°25' W 062°17'1212.1
2017-Feb-12 10:33N 17°18' W 062°06'1211.7
2017-Feb-12 09:33N 17°11' W 061°56'2 2.1
2017-Feb-12 08:33N 17°10' W 061°54'0 0.2
2017-Feb-12 07:33N 17°10' W 061°54'0 0.1
2017-Feb-12 06:33N 17°10' W 061°54'0 0.0
2017-Feb-12 05:31N 17°10' W 061°54'0 0.1
2017-Feb-12 04:33N 17°10' W 061°54'2 1.9
2017-Feb-12 03:31N 17°09' W 061°52'0 0.0
2017-Feb-12 02:31N 17°09' W 061°52'0 0.0
2017-Feb-12 01:31N 17°09' W 061°52'0 0.0
2017-Feb-12 00:31N 17°09' W 061°52'0 0.0
2017-Feb-11 23:31N 17°09' W 061°52'0 0.0
2017-Feb-11 22:31N 17°09' W 061°52'0 0.0
2017-Feb-11 21:34N 17°09' W 061°52'0 0.0
2017-Feb-11 20:33N 17°09' W 061°52'0 0.0
2017-Feb-11 19:33N 17°09' W 061°52'0 0.0
2017-Feb-11 18:34N 17°09' W 061°52'0 0.0
2017-Feb-11 17:33N 17°09' W 061°52'0 0.0
2017-Feb-11 16:33N 17°09' W 061°52'0 0.0
2017-Feb-11 15:34N 17°09' W 061°52'0 0.0
2017-Feb-11 14:33N 17°09' W 061°52'0 0.0
2017-Feb-11 13:33N 17°09' W 061°52'0 0.0
2017-Feb-11 12:33N 17°09' W 061°52'0 0.0
2017-Feb-11 11:33N 17°09' W 061°52'0 0.0
2017-Feb-11 10:33N 17°09' W 061°52'0 0.0
2017-Feb-11 09:33N 17°09' W 061°52'0 0.0
2017-Feb-11 08:33N 17°09' W 061°52'0 0.0
2017-Feb-11 07:33N 17°09' W 061°52'0 0.0
2017-Feb-11 06:34N 17°09' W 061°52'0 0.0
2017-Feb-11 05:34N 17°09' W 061°52'0 0.0
2017-Feb-11 04:33N 17°09' W 061°52'0 0.0
2017-Feb-11 03:33N 17°09' W 061°52'0 0.0
2017-Feb-11 02:34N 17°09' W 061°52'0 0.0
2017-Feb-11 01:34N 17°09' W 061°52'0 0.0
2017-Feb-11 00:33N 17°09' W 061°52'0 0.0
2017-Feb-10 23:33N 17°09' W 061°52'0 0.0
2017-Feb-10 22:33N 17°09' W 061°52'0 0.0
2017-Feb-10 21:33N 17°09' W 061°52'0 0.0
2017-Feb-10 20:33N 17°09' W 061°52'2 1.8
2017-Feb-10 19:33N 17°09' W 061°54'0 0.1
2017-Feb-10 18:33N 17°09' W 061°54'0 0.0
2017-Feb-10 17:33N 17°09' W 061°54'0 0.1
2017-Feb-10 16:33N 17°09' W 061°54'0 0.0
2017-Feb-10 15:33N 17°09' W 061°54'0 0.0
2017-Feb-10 14:33N 17°09' W 061°54'0 0.0
2017-Feb-10 13:33N 17°09' W 061°54'0 0.1
2017-Feb-10 12:33N 17°09' W 061°54'0 0.0
2017-Feb-10 11:33N 17°09' W 061°54'0 0.0
2017-Feb-10 10:33N 17°09' W 061°54'0 0.0
2017-Feb-10 09:33N 17°09' W 061°54'0 0.0
2017-Feb-10 08:34N 17°09' W 061°54'0 0.0
2017-Feb-10 07:34N 17°09' W 061°54'0 0.0
2017-Feb-10 06:34N 17°09' W 061°54'0 0.0
2017-Feb-10 05:33N 17°09' W 061°54'0 0.0
2017-Feb-10 04:34N 17°09' W 061°54'0 0.0
2017-Feb-10 03:33N 17°09' W 061°54'0 0.0
2017-Feb-10 02:33N 17°09' W 061°54'0 0.0
2017-Feb-10 01:33N 17°09' W 061°54'0 0.0
2017-Feb-10 00:33N 17°09' W 061°54'  

Dump ship's entire track history